createdAt,value
2019-03-05T00:02:08.817Z,24.20
2019-03-05T00:04:38.528Z,24.47
2019-03-05T00:07:08.743Z,25.02
2019-03-05T00:09:38.352Z,25.23
2019-03-05T00:12:08.053Z,22.13
2019-03-05T00:14:38.172Z,23.85
2019-03-05T00:17:07.879Z,24.00
2019-03-05T00:19:38.715Z,24.77
2019-03-05T00:22:08.889Z,26.45
2019-03-05T00:25:00.670Z,25.57
2019-03-05T00:27:32.536Z,24.32
2019-03-05T00:30:20.246Z,26.00
2019-03-05T00:32:56.527Z,27.00
2019-03-05T00:35:29.297Z,23.15
2019-03-05T00:40:55.844Z,26.87
2019-03-05T00:43:35.075Z,26.10
2019-03-05T00:46:20.043Z,25.00
2019-03-05T00:49:02.447Z,26.48
2019-03-05T00:51:47.226Z,26.33
2019-03-05T00:54:42.619Z,25.68
2019-03-05T00:57:15.507Z,26.05
2019-03-05T00:59:51.337Z,25.68
2019-03-05T01:02:39.084Z,26.33
2019-03-05T01:05:18.299Z,26.90
2019-03-05T01:07:47.942Z,25.65
2019-03-05T01:10:19.190Z,25.50
2019-03-05T01:12:48.788Z,24.27
2019-03-05T01:15:18.485Z,24.45
2019-03-05T01:17:48.557Z,25.32
2019-03-05T01:20:18.198Z,24.75
2019-03-05T01:22:47.983Z,24.65
2019-03-05T01:25:29.127Z,26.27
2019-03-05T01:27:58.936Z,25.02
2019-03-05T01:30:55.447Z,23.57
2019-03-05T01:33:26.887Z,25.72
2019-03-05T01:36:01.526Z,25.68
2019-03-05T01:38:32.762Z,25.20
2019-03-05T01:41:04.413Z,25.02
2019-03-05T01:43:34.166Z,25.32
2019-03-05T01:46:04.242Z,26.05
2019-03-05T01:48:33.907Z,25.97
2019-03-05T01:51:03.659Z,24.45
2019-03-05T01:53:33.771Z,24.15
2019-03-05T01:56:03.434Z,22.77
2019-03-05T01:58:33.102Z,23.70
2019-03-05T02:01:03.617Z,24.00
2019-03-05T02:03:33.640Z,22.98
2019-03-05T02:06:04.728Z,22.35
2019-03-05T02:08:34.480Z,22.75
2019-03-05T02:11:04.393Z,24.77
2019-03-05T02:13:34.471Z,23.22
2019-03-05T02:16:04.121Z,23.12
2019-03-05T02:18:33.762Z,21.23
2019-03-05T02:21:03.921Z,22.48
2019-03-05T02:23:36.684Z,22.50
2019-03-05T02:29:01.520Z,21.20
2019-03-05T02:31:53.095Z,20.60
2019-03-05T02:34:25.939Z,22.50
2019-03-05T02:37:08.344Z,20.23
2019-03-05T02:40:00.614Z,21.55
2019-03-05T02:42:48.829Z,21.23
2019-03-05T02:45:31.713Z,20.43
2019-03-05T02:48:23.445Z,21.80
2019-03-05T02:51:24.921Z,20.35
2019-03-05T02:54:07.120Z,18.85
2019-03-05T02:56:42.904Z,19.07
2019-03-05T02:59:11.965Z,19.80
2019-03-05T03:01:46.197Z,20.55
2019-03-05T03:04:17.910Z,20.50
2019-03-05T03:06:47.587Z,20.65
2019-03-05T03:09:32.511Z,18.67
2019-03-05T03:12:02.586Z,18.45
2019-03-05T03:14:32.342Z,19.40
2019-03-05T03:17:01.944Z,19.20
2019-03-05T03:19:32.073Z,19.05
2019-03-05T03:22:01.768Z,18.42
2019-03-05T03:24:31.478Z,18.07
2019-03-05T03:27:01.697Z,18.20
2019-03-05T03:29:32.532Z,18.27
2019-03-05T03:32:05.418Z,18.87
2019-03-05T03:34:35.044Z,18.50
2019-03-05T03:37:05.450Z,18.87
2019-03-05T03:39:35.093Z,18.12
2019-03-05T03:42:04.866Z,17.37
2019-03-05T03:44:34.987Z,20.12
2019-03-05T03:47:04.713Z,18.85
2019-03-05T03:49:34.353Z,18.98
2019-03-05T03:52:04.435Z,18.15
2019-03-05T03:54:34.123Z,20.90
2019-03-05T03:57:05.344Z,19.40
2019-03-05T03:59:35.488Z,22.77
2019-03-05T04:02:06.217Z,21.40
2019-03-05T04:04:35.863Z,22.07
2019-03-05T04:07:06.051Z,20.30
2019-03-05T04:09:35.750Z,19.95
2019-03-05T04:12:05.402Z,20.48
2019-03-05T04:14:35.622Z,21.23
2019-03-05T04:17:05.304Z,20.35
2019-03-05T04:19:35.453Z,20.77
2019-03-05T04:22:05.522Z,19.25
2019-03-05T04:24:36.256Z,20.62
2019-03-05T04:27:05.945Z,19.55
2019-03-05T04:29:36.044Z,17.52
2019-03-05T04:32:05.797Z,16.97
2019-03-05T04:34:36.483Z,16.85
2019-03-05T04:37:06.551Z,15.98
2019-03-05T04:39:36.296Z,15.58
2019-03-05T04:42:05.940Z,15.83
2019-03-05T04:44:43.587Z,15.45
2019-03-05T04:47:13.464Z,14.63
2019-03-05T04:49:48.291Z,15.38
2019-03-05T04:52:19.130Z,14.63
2019-03-05T04:54:49.130Z,15.15
2019-03-05T04:57:18.825Z,13.55
2019-03-05T04:59:54.737Z,13.90
2019-03-05T05:02:30.732Z,13.50
2019-03-05T05:05:00.386Z,13.65
2019-03-05T05:07:32.230Z,14.93
2019-03-05T05:10:03.756Z,13.28
2019-03-05T05:12:33.869Z,12.98
2019-03-05T05:15:04.116Z,12.33
2019-03-05T05:17:33.830Z,11.70
2019-03-05T05:20:08.191Z,12.73
2019-03-05T05:22:37.761Z,10.60
2019-03-05T05:25:07.979Z,11.93
2019-03-05T05:27:37.593Z,11.22
2019-03-05T05:30:10.842Z,11.80
2019-03-05T05:32:41.025Z,11.43
2019-03-05T05:35:10.601Z,10.43
2019-03-05T05:37:40.243Z,11.75
2019-03-05T05:40:33.094Z,11.22
2019-03-05T05:43:03.049Z,10.55
2019-03-05T05:45:36.262Z,10.30
2019-03-05T05:48:05.969Z,11.05
2019-03-05T05:50:36.080Z,11.08
2019-03-05T05:53:05.738Z,10.40
2019-03-05T05:55:35.493Z,10.40
2019-03-05T05:58:05.724Z,9.33
2019-03-05T06:00:36.927Z,9.68
2019-03-05T06:03:07.119Z,8.33
2019-03-05T06:05:36.790Z,9.55
2019-03-05T06:08:06.443Z,10.50
2019-03-05T06:10:36.538Z,9.30
2019-03-05T06:13:06.180Z,9.73
2019-03-05T06:15:35.820Z,9.68
2019-03-05T06:18:06.039Z,9.60
2019-03-05T06:20:35.754Z,10.25
2019-03-05T06:23:05.459Z,10.18
2019-03-05T06:25:35.624Z,10.23
2019-03-05T06:28:05.266Z,11.55
2019-03-05T06:30:42.147Z,11.35
2019-03-05T06:33:12.226Z,10.88
2019-03-05T06:35:51.961Z,10.75
2019-03-05T06:38:22.171Z,11.08
2019-03-05T06:40:51.862Z,10.70
2019-03-05T06:43:26.146Z,11.45
2019-03-05T06:45:58.239Z,11.25
2019-03-05T06:48:27.938Z,12.82
2019-03-05T06:50:57.580Z,13.98
2019-03-05T06:53:27.782Z,12.73
2019-03-05T06:55:57.474Z,12.88
2019-03-05T06:58:27.184Z,11.73
2019-03-05T07:00:57.409Z,11.68
2019-03-05T07:03:27.054Z,10.40
2019-03-05T07:06:33.453Z,11.15
2019-03-05T07:09:09.457Z,10.93
2019-03-05T07:11:59.009Z,10.18
2019-03-05T07:14:59.492Z,9.78
2019-03-05T07:17:51.937Z,10.85
2019-03-05T07:20:40.479Z,9.88
2019-03-05T07:23:22.261Z,10.40
2019-03-05T07:25:52.493Z,11.12
2019-03-05T07:28:22.255Z,12.15
2019-03-05T07:30:52.067Z,10.80
2019-03-05T07:33:22.201Z,12.28
2019-03-05T07:35:51.842Z,11.65
2019-03-05T07:38:21.499Z,12.18
2019-03-05T07:40:51.688Z,11.25
2019-03-05T07:43:23.598Z,12.13
2019-03-05T07:45:53.692Z,12.40
2019-03-05T07:48:23.403Z,13.10
2019-03-05T07:50:53.128Z,12.35
2019-03-05T07:53:30.398Z,12.05
2019-03-05T07:55:57.955Z,12.05
2019-03-05T07:58:28.329Z,10.68
2019-03-05T08:01:00.056Z,11.63
2019-03-05T08:03:37.825Z,11.50
2019-03-05T08:06:08.828Z,10.45
2019-03-05T08:09:16.899Z,12.30
2019-03-05T08:15:22.444Z,11.53
2019-03-05T08:17:52.151Z,10.55
2019-03-05T08:20:31.623Z,12.37
2019-03-05T08:23:08.939Z,11.57
2019-03-05T08:25:42.273Z,11.05
2019-03-05T08:28:12.926Z,11.83
2019-03-05T08:30:42.612Z,13.10
2019-03-05T08:33:12.779Z,10.38
2019-03-05T08:35:44.763Z,12.55
2019-03-05T08:38:15.483Z,12.30
2019-03-05T08:40:45.242Z,12.50
2019-03-05T08:43:14.883Z,10.60
2019-03-05T08:45:45.059Z,11.35
2019-03-05T08:48:14.915Z,11.38
2019-03-05T08:50:44.577Z,11.65
2019-03-05T08:53:14.803Z,10.80
2019-03-05T08:55:44.448Z,10.80
2019-03-05T08:58:14.113Z,10.05
2019-03-05T09:00:44.333Z,10.53
2019-03-05T09:03:15.166Z,11.73
2019-03-05T09:05:44.748Z,10.80
2019-03-05T09:08:14.992Z,10.80
2019-03-05T09:10:44.647Z,11.33
2019-03-05T09:13:14.297Z,11.18
2019-03-05T09:15:44.431Z,10.50
2019-03-05T09:18:14.240Z,11.40
2019-03-05T09:20:44.051Z,11.30
2019-03-05T09:23:14.139Z,10.80
2019-03-05T09:25:43.787Z,10.60
2019-03-05T09:28:13.484Z,11.70
2019-03-05T09:30:43.708Z,10.38
2019-03-05T09:33:13.516Z,11.20
2019-03-05T09:35:43.163Z,11.10
2019-03-05T09:38:13.443Z,10.98
2019-03-05T09:40:43.141Z,10.82
2019-03-05T09:43:12.863Z,11.25
2019-03-05T09:45:43.082Z,10.03
2019-03-05T09:48:12.775Z,11.70
2019-03-05T09:50:42.465Z,11.95
2019-03-05T09:53:12.720Z,11.30
2019-03-05T09:55:42.322Z,10.68
2019-03-05T09:58:12.246Z,11.22
2019-03-05T10:00:42.250Z,11.97
2019-03-05T10:03:11.763Z,11.68
2019-03-05T10:05:41.261Z,11.85
2019-03-05T10:08:11.173Z,12.40
2019-03-05T10:10:40.783Z,11.93
2019-03-05T10:13:10.282Z,12.15
2019-03-05T10:15:40.159Z,11.63
2019-03-05T10:18:12.902Z,10.50
2019-03-05T10:20:40.850Z,10.80
2019-03-05T10:23:10.860Z,11.03
2019-03-05T10:25:40.364Z,11.10
2019-03-05T10:28:09.864Z,10.60
2019-03-05T10:30:41.312Z,10.35
2019-03-05T10:33:11.495Z,10.08
2019-03-05T10:35:41.653Z,11.68
2019-03-05T10:38:11.641Z,11.33
2019-03-05T10:40:46.732Z,11.03
2019-03-05T10:43:17.752Z,10.68
2019-03-05T10:45:48.203Z,11.40
2019-03-05T10:48:20.379Z,11.10
2019-03-05T10:50:50.044Z,11.00
2019-03-05T10:53:20.881Z,10.48
2019-03-05T10:55:50.687Z,10.15
2019-03-05T10:58:20.507Z,10.80
2019-03-05T11:00:53.121Z,9.85
2019-03-05T11:03:24.165Z,10.15
2019-03-05T11:05:54.599Z,11.03
2019-03-05T11:08:25.452Z,10.10
2019-03-05T11:10:55.744Z,10.40
2019-03-05T11:13:25.513Z,10.75
2019-03-05T11:15:57.613Z,9.80
2019-03-05T11:18:29.762Z,11.13
2019-03-05T11:20:59.241Z,9.98
2019-03-05T11:23:29.359Z,10.38
2019-03-05T11:25:59.271Z,10.63
2019-03-05T11:28:29.512Z,9.90
2019-03-05T11:30:59.531Z,10.28
2019-03-05T11:33:29.323Z,9.65
2019-03-05T11:36:01.394Z,10.10
2019-03-05T11:38:31.581Z,10.23
2019-03-05T11:41:01.315Z,12.10
2019-03-05T11:43:30.956Z,10.68
2019-03-05T11:46:01.090Z,9.95
2019-03-05T11:48:30.759Z,9.98
2019-03-05T11:51:00.454Z,9.75
2019-03-05T11:53:30.676Z,9.43
2019-03-05T11:56:00.377Z,9.55
2019-03-05T11:58:30.086Z,9.30
2019-03-05T12:01:01.851Z,10.03
2019-03-05T12:03:31.637Z,9.65
2019-03-05T12:06:01.778Z,10.23
2019-03-05T12:08:31.486Z,9.68
2019-03-05T12:11:01.188Z,9.25
2019-03-05T12:13:32.241Z,10.25
2019-03-05T12:16:01.943Z,10.50
2019-03-05T12:18:31.624Z,9.90
2019-03-05T12:21:01.775Z,9.90
2019-03-05T12:23:31.479Z,11.68
2019-03-05T12:26:01.133Z,11.30
2019-03-05T12:28:31.306Z,9.20
2019-03-05T12:31:01.007Z,9.88
2019-03-05T12:33:30.728Z,10.08
2019-03-05T12:36:00.843Z,10.38
2019-03-05T12:38:30.648Z,10.98
2019-03-05T12:41:00.330Z,11.50
2019-03-05T12:43:30.574Z,10.60
2019-03-05T12:46:00.251Z,10.03
2019-03-05T12:48:39.611Z,9.18
2019-03-05T12:51:01.707Z,12.15
2019-03-05T12:53:31.464Z,10.40
2019-03-05T12:56:01.170Z,9.50
2019-03-05T12:58:32.408Z,10.10
2019-03-05T13:01:02.154Z,11.18
2019-03-05T13:03:32.037Z,10.08
2019-03-05T13:06:02.154Z,10.88
2019-03-05T13:08:31.851Z,11.60
2019-03-05T13:11:01.570Z,10.18
2019-03-05T13:13:37.412Z,10.35
2019-03-05T13:16:07.245Z,10.95
2019-03-05T13:18:37.351Z,10.58
2019-03-05T13:21:07.739Z,11.18
2019-03-05T13:23:38.818Z,10.82
2019-03-05T13:26:11.042Z,10.58
2019-03-05T13:28:44.492Z,11.65
2019-03-05T13:31:15.209Z,11.93
2019-03-05T13:33:45.433Z,11.95
2019-03-05T13:36:16.669Z,11.18
2019-03-05T13:38:46.898Z,11.53
2019-03-05T13:41:16.857Z,10.23
2019-03-05T13:43:46.726Z,11.28
2019-03-05T13:46:17.863Z,11.10
2019-03-05T13:49:02.813Z,11.25
2019-03-05T13:51:59.475Z,10.38
2019-03-05T13:54:43.891Z,9.88
2019-03-05T13:57:19.766Z,10.85
2019-03-05T13:59:49.436Z,10.53
2019-03-05T14:02:22.635Z,10.88
2019-03-05T14:05:01.268Z,12.07
2019-03-05T14:08:09.526Z,10.40
2019-03-05T14:10:39.228Z,10.28
2019-03-05T14:13:09.419Z,14.10
2019-03-05T14:15:40.343Z,10.28
2019-03-05T14:18:10.097Z,11.28
2019-03-05T14:20:40.304Z,11.18
2019-03-05T14:23:10.009Z,10.65
2019-03-05T14:25:39.723Z,10.40
2019-03-05T14:28:09.863Z,12.03
2019-03-05T14:30:39.846Z,11.57
2019-03-05T14:33:09.734Z,11.10
2019-03-05T14:35:39.881Z,11.08
2019-03-05T14:38:09.570Z,11.25
2019-03-05T14:40:39.472Z,11.65
2019-03-05T14:43:09.741Z,11.60
2019-03-05T14:45:39.430Z,13.48
2019-03-05T14:48:09.168Z,13.43
2019-03-05T14:50:39.392Z,12.85
2019-03-05T14:53:09.040Z,13.43
2019-03-05T14:55:38.684Z,13.60
2019-03-05T14:58:08.772Z,13.75
2019-03-05T15:00:38.440Z,13.35
2019-03-05T15:03:08.299Z,14.87
2019-03-05T15:05:38.396Z,16.40
2019-03-05T15:08:10.096Z,17.65
2019-03-05T15:10:40.329Z,18.57
2019-03-05T15:13:16.230Z,16.85
2019-03-05T15:15:41.844Z,17.98
2019-03-05T15:18:11.536Z,17.55
2019-03-05T15:20:41.608Z,16.12
2019-03-05T15:23:11.904Z,17.82
2019-03-05T15:25:43.118Z,20.27
2019-03-05T15:28:13.910Z,22.15
2019-03-05T15:30:43.467Z,23.27
2019-03-05T15:33:13.118Z,24.82
2019-03-05T15:35:44.358Z,25.02
2019-03-05T15:38:15.106Z,26.30
2019-03-05T15:40:45.189Z,25.10
2019-03-05T15:43:15.325Z,25.62
2019-03-05T15:45:45.011Z,24.90
2019-03-05T15:48:15.172Z,22.30
2019-03-05T15:50:45.085Z,21.10
2019-03-05T15:53:15.030Z,20.95
2019-03-05T15:55:45.790Z,20.12
2019-03-05T15:58:15.446Z,17.87
2019-03-05T16:00:45.705Z,17.37
2019-03-05T16:03:15.857Z,15.70
2019-03-05T16:05:45.535Z,17.15
2019-03-05T16:08:15.341Z,16.90
2019-03-05T16:10:50.431Z,16.45
2019-03-05T16:13:19.388Z,16.97
2019-03-05T16:15:50.440Z,17.07
2019-03-05T16:18:20.090Z,16.45
2019-03-05T16:20:50.074Z,15.95
2019-03-05T16:23:20.281Z,16.82
2019-03-05T16:25:51.657Z,16.12
2019-03-05T16:28:21.951Z,15.88
2019-03-05T16:30:59.237Z,15.85
2019-03-05T16:33:36.972Z,17.95
2019-03-05T16:36:25.527Z,18.50
2019-03-05T16:38:56.071Z,18.32
2019-03-05T16:41:42.377Z,19.90
2019-03-05T16:44:14.221Z,19.27
2019-03-05T16:46:51.359Z,20.55
2019-03-05T16:49:39.044Z,20.82
2019-03-05T16:52:12.885Z,20.68
2019-03-05T16:54:50.378Z,16.73
2019-03-05T16:57:38.314Z,16.85
2019-03-05T17:00:25.735Z,16.42
2019-03-05T17:02:57.495Z,18.45
2019-03-05T17:05:29.184Z,18.75
2019-03-05T17:08:09.219Z,17.40
2019-03-05T17:10:56.902Z,17.23
2019-03-05T17:13:26.644Z,14.75
2019-03-05T17:15:57.064Z,13.48
2019-03-05T17:18:26.765Z,11.18
2019-03-05T17:20:56.691Z,11.25
2019-03-05T17:23:26.909Z,9.48
2019-03-05T17:25:56.556Z,8.45
2019-03-05T17:28:26.194Z,7.95
2019-03-05T17:30:56.549Z,8.70
2019-03-05T17:33:26.195Z,10.72
2019-03-05T17:35:55.861Z,14.93
2019-03-05T17:38:26.210Z,22.15
2019-03-05T17:41:08.862Z,30.20
2019-03-05T17:43:49.347Z,34.95
2019-03-05T17:46:20.700Z,27.95
2019-03-05T17:48:55.157Z,26.42
2019-03-05T17:51:27.899Z,17.87
2019-03-05T17:53:58.123Z,15.93
2019-03-05T17:56:27.871Z,12.78
2019-03-05T17:58:57.533Z,11.25
2019-03-05T18:01:27.755Z,9.68
2019-03-05T18:03:58.594Z,8.95
2019-03-05T18:06:28.306Z,9.40
2019-03-05T18:08:59.347Z,9.63
2019-03-05T18:11:29.153Z,10.30
2019-03-05T18:13:58.833Z,10.45
2019-03-05T18:16:29.121Z,9.25
2019-03-05T18:18:58.738Z,10.38
2019-03-05T18:21:28.458Z,10.20
2019-03-05T18:23:59.063Z,10.03
2019-03-05T18:26:30.289Z,9.85
2019-03-05T18:29:02.653Z,10.08
2019-03-05T18:31:32.363Z,8.05
2019-03-05T18:34:04.118Z,8.50
2019-03-05T18:36:34.329Z,8.40
2019-03-05T18:39:05.327Z,7.45
2019-03-05T18:41:42.141Z,7.00
2019-03-05T18:44:12.961Z,8.03
2019-03-05T18:46:42.644Z,8.03
2019-03-05T18:49:12.278Z,7.50
2019-03-05T18:51:42.352Z,7.67
2019-03-05T18:54:12.036Z,7.12
2019-03-05T18:56:41.724Z,7.22
2019-03-05T18:59:11.845Z,8.55
2019-03-05T19:01:42.411Z,7.95
2019-03-05T19:04:13.513Z,8.03
2019-03-05T19:06:43.215Z,8.40
